Time;durP1;ratioP1;P1;durP2;ratioP2;P2;SDS_P1;SDS_P2;PMS_P1;PMS_P2;Temp;Humidity;BMP_temperature;BMP_pressure;BME280_temperature;BME280_humidity;BME280_pressure;Samples;Min_cycle;Max_cycle;Signal;HPM_P1;HPM_P2
2023/11/29 00:01:58;;;;;;;32.50;18.17;;;;;;;4.26;100.00;97768.66;5098200;28;20035;-70
2023/11/29 00:04:23;;;;;;;35.58;19.42;;;;;;;4.31;100.00;97774.81;5094715;28;20093;-70
2023/11/29 00:06:49;;;;;;;35.88;19.42;;;;;;;4.26;100.00;97774.22;5076653;28;20078;-70
2023/11/29 00:09:14;;;;;;;35.25;18.60;;;;;;;4.34;100.00;97781.66;5096529;28;20049;-70
2023/11/29 00:11:40;;;;;;;32.63;17.48;;;;;;;4.39;100.00;97758.50;5094644;28;20392;-70
2023/11/29 00:14:05;;;;;;;38.13;19.23;;;;;;;4.44;100.00;97759.13;5093077;28;20027;-71
2023/11/29 00:16:31;;;;;;;29.65;15.80;;;;;;;4.49;100.00;97747.03;5094386;28;20032;-70
2023/11/29 00:18:57;;;;;;;23.98;13.73;;;;;;;4.57;100.00;97740.63;5094328;28;20019;-70
2023/11/29 00:21:23;;;;;;;26.75;13.43;;;;;;;4.58;100.00;97727.59;5086234;28;20118;-70
2023/11/29 00:23:48;;;;;;;18.00;10.95;;;;;;;4.74;100.00;97736.09;5094437;28;20028;-70
2023/11/29 00:26:14;;;;;;;18.38;11.50;;;;;;;4.83;100.00;97744.34;5082636;28;20039;-70
2023/11/29 00:28:39;;;;;;;17.15;11.25;;;;;;;4.99;100.00;97753.63;5094390;28;20036;-70
2023/11/29 00:31:05;;;;;;;16.05;11.15;;;;;;;5.00;100.00;97762.75;5101856;28;20028;-70
2023/11/29 00:33:30;;;;;;;18.27;11.50;;;;;;;4.94;100.00;97784.34;5107941;28;20036;-70
2023/11/29 00:35:55;;;;;;;23.38;12.68;;;;;;;4.92;100.00;97792.97;5088333;28;20028;-70
2023/11/29 00:38:22;;;;;;;22.10;13.20;;;;;;;4.84;100.00;97791.09;5092827;28;20039;-70
2023/11/29 00:40:47;;;;;;;27.48;16.58;;;;;;;4.80;100.00;97783.81;5099887;28;20044;-70
2023/11/29 00:43:13;;;;;;;23.65;13.93;;;;;;;4.81;100.00;97790.97;5075958;28;20028;-70
2023/11/29 00:45:38;;;;;;;60.65;46.08;;;;;;;4.90;100.00;97789.72;5093925;28;20028;-70
2023/11/29 00:48:04;;;;;;;26.70;19.27;;;;;;;4.95;100.00;97779.59;5093879;28;20081;-70
2023/11/29 00:50:29;;;;;;;26.30;15.23;;;;;;;5.05;100.00;97757.00;5101103;28;20028;-70
2023/11/29 00:52:56;;;;;;;24.75;15.02;;;;;;;5.16;100.00;97760.19;5093942;28;20073;-70
2023/11/29 00:55:21;;;;;;;22.60;13.48;;;;;;;5.08;100.00;97758.28;5093623;28;20055;-70
2023/11/29 00:57:47;;;;;;;23.92;15.63;;;;;;;4.88;100.00;97769.88;5093942;28;20055;-70
2023/11/29 01:00:13;;;;;;;24.80;15.40;;;;;;;4.72;100.00;97783.50;5100550;28;20392;-70
2023/11/29 01:02:38;;;;;;;21.80;14.20;;;;;;;4.86;100.00;97777.72;5091636;28;20475;-70
2023/11/29 01:05:04;;;;;;;23.73;14.07;;;;;;;4.99;100.00;97778.56;5093675;28;20024;-70
2023/11/29 01:07:29;;;;;;;30.05;19.58;;;;;;;5.10;100.00;97778.16;5095785;28;20488;-70
2023/11/29 01:09:55;;;;;;;34.13;20.50;;;;;;;5.14;100.00;97762.50;5112973;28;20035;-70
2023/11/29 01:12:20;;;;;;;25.80;15.02;;;;;;;4.98;100.00;97774.19;5093759;28;20032;-70
2023/11/29 01:14:46;;;;;;;21.52;13.27;;;;;;;4.71;100.00;97789.41;5093706;28;20023;-70
2023/11/29 01:17:11;;;;;;;21.08;12.68;;;;;;;4.81;100.00;97796.50;5094909;28;20066;-70
2023/11/29 01:19:37;;;;;;;32.88;16.27;;;;;;;4.60;100.00;97798.13;5093396;28;20028;-70
2023/11/29 01:22:04;;;;;;;28.35;16.27;;;;;;;4.52;100.00;97809.22;5107587;28;20031;-70
2023/11/29 01:24:29;;;;;;;29.05;16.70;;;;;;;4.59;100.00;97813.13;5094230;28;20089;-70
2023/11/29 01:26:55;;;;;;;25.45;15.70;;;;;;;4.78;100.00;97847.84;5097209;28;20028;-70
2023/11/29 01:29:20;;;;;;;21.85;15.35;;;;;;;4.69;100.00;97858.16;5093149;28;20101;-70
2023/11/29 01:31:45;;;;;;;26.95;15.68;;;;;;;4.71;100.00;97867.75;5093013;28;20101;-70
2023/11/29 01:34:12;;;;;;;26.17;16.27;;;;;;;4.78;100.00;97876.38;5081474;28;20027;-71
2023/11/29 01:36:43;;;;;;;27.77;16.58;;;;;;;4.83;100.00;97872.59;5094578;28;20031;-70
2023/11/29 01:39:14;;;;;;;29.00;15.85;;;;;;;4.63;100.00;97868.63;5090836;28;20019;-70
2023/11/29 01:41:41;;;;;;;26.05;14.75;;;;;;;4.59;100.00;97856.59;5084214;28;20086;-70
2023/11/29 01:44:07;;;;;;;32.83;17.50;;;;;;;4.39;100.00;97852.63;5094009;28;20507;-70
2023/11/29 01:46:32;;;;;;;27.70;18.90;;;;;;;4.31;100.00;97857.06;5090803;28;20031;-70
2023/11/29 01:48:58;;;;;;;29.35;19.55;;;;;;;4.23;100.00;97853.22;5092843;28;20441;-70
2023/11/29 01:51:24;;;;;;;34.97;21.80;;;;;;;4.25;100.00;97866.69;5092624;28;20149;-70
2023/11/29 01:53:51;;;;;;;38.20;22.90;;;;;;;4.29;100.00;97873.22;5096937;28;20043;-71
2023/11/29 01:56:19;;;;;;;34.97;22.10;;;;;;;4.24;100.00;97890.81;5102021;28;20028;-70
2023/11/29 01:58:44;;;;;;;40.15;22.02;;;;;;;4.17;100.00;97907.09;5092705;28;20397;-70
2023/11/29 02:01:10;;;;;;;41.63;25.30;;;;;;;3.99;100.00;97921.00;5093441;28;20034;-70
2023/11/29 02:03:35;;;;;;;44.85;26.30;;;;;;;3.96;100.00;97918.88;5111734;28;20551;-70
2023/11/29 02:06:01;;;;;;;46.17;26.02;;;;;;;3.86;100.00;97921.97;5108426;28;20106;-70
2023/11/29 02:08:28;;;;;;;42.00;26.65;;;;;;;3.89;100.00;97915.81;5112928;28;20503;-70
2023/11/29 02:10:54;;;;;;;46.17;26.55;;;;;;;3.86;100.00;97935.81;5104913;28;20042;-70
2023/11/29 02:13:20;;;;;;;42.17;24.92;;;;;;;3.77;100.00;97941.38;5102540;28;20032;-70
2023/11/29 02:15:46;;;;;;;51.47;30.75;;;;;;;3.70;100.00;97939.09;5104905;28;20020;-70
2023/11/29 02:18:13;;;;;;;49.80;30.23;;;;;;;3.77;100.00;97944.13;5074157;28;20115;-70
2023/11/29 02:20:39;;;;;;;49.20;30.58;;;;;;;3.69;100.00;97940.25;5074954;28;20031;-70
2023/11/29 02:23:23;;;;;;;50.92;30.77;;;;;;;3.94;100.00;97954.34;5074105;28;20035;-70
2023/11/29 02:25:49;;;;;;;52.47;31.25;;;;;;;4.02;100.00;97970.16;5094050;28;20028;-70
2023/11/29 02:28:14;;;;;;;42.42;26.92;;;;;;;4.07;100.00;97969.97;5092211;28;20028;-70
2023/11/29 02:30:40;;;;;;;45.58;27.42;;;;;;;4.08;100.00;97979.09;5073612;28;20046;-70
2023/11/29 02:33:05;;;;;;;55.65;29.30;;;;;;;4.06;100.00;97984.94;5073831;28;20077;-70
2023/11/29 02:35:31;;;;;;;34.00;23.13;;;;;;;4.13;100.00;97984.44;5103250;28;20016;-70
2023/11/29 02:37:56;;;;;;;33.55;20.50;;;;;;;4.15;100.00;97984.91;5106150;28;20031;-70
2023/11/29 02:40:24;;;;;;;31.35;19.65;;;;;;;4.24;100.00;97996.00;5109548;28;20024;-70
2023/11/29 02:42:49;;;;;;;28.13;17.27;;;;;;;4.40;100.00;97981.63;5112172;28;20083;-70
2023/11/29 02:45:15;;;;;;;28.27;17.38;;;;;;;4.53;100.00;97979.78;5108716;28;20412;-70
2023/11/29 02:47:41;;;;;;;33.85;20.27;;;;;;;4.54;100.00;97984.19;5091661;28;20110;-70
2023/11/29 02:50:07;;;;;;;26.05;16.30;;;;;;;4.48;100.00;97994.63;5086832;28;20497;-70
2023/11/29 02:52:32;;;;;;;30.80;18.73;;;;;;;4.57;100.00;97994.59;5091567;28;20109;-70
2023/11/29 02:54:58;;;;;;;27.52;16.33;;;;;;;4.66;100.00;98002.84;5102543;28;20027;-70
2023/11/29 02:57:23;;;;;;;27.85;18.02;;;;;;;4.68;100.00;97995.03;5091623;28;20028;-70
2023/11/29 02:59:48;;;;;;;27.33;16.08;;;;;;;4.69;100.00;97994.72;5091641;28;20039;-70
2023/11/29 03:02:14;;;;;;;27.33;16.08;;;;;;;4.55;100.00;97997.69;5108128;28;20027;-70
2023/11/29 03:04:39;;;;;;;61.10;27.30;;;;;;;4.65;100.00;98010.38;5081623;28;20507;-70
2023/11/29 03:07:05;;;;;;;37.67;19.15;;;;;;;4.70;100.00;98010.19;5096581;28;20019;-70
2023/11/29 03:09:31;;;;;;;53.35;25.95;;;;;;;4.75;100.00;98014.72;5111745;28;20019;-70
2023/11/29 03:11:56;;;;;;;36.47;18.65;;;;;;;4.77;100.00;98026.28;5094944;28;20160;-70
2023/11/29 03:14:22;;;;;;;53.22;25.58;;;;;;;4.80;100.00;98027.59;5078553;28;20122;-70
2023/11/29 03:16:47;;;;;;;42.63;21.88;;;;;;;4.68;100.00;98025.50;5096168;28;20024;-70
2023/11/29 03:19:13;;;;;;;33.45;17.65;;;;;;;4.71;100.00;98028.44;5073252;28;20504;-70
2023/11/29 03:21:38;;;;;;;24.15;15.70;;;;;;;4.65;100.00;98038.06;5091010;28;20059;-70
2023/11/29 03:24:04;;;;;;;30.67;17.33;;;;;;;4.41;100.00;98052.44;5093923;28;20028;-70
2023/11/29 03:26:30;;;;;;;35.28;18.88;;;;;;;4.27;100.00;98047.09;5086516;28;20039;-70
2023/11/29 03:28:55;;;;;;;28.25;15.93;;;;;;;4.45;100.00;98036.81;5110925;28;20027;-70
2023/11/29 03:31:20;;;;;;;23.73;15.27;;;;;;;4.56;100.00;98046.38;5081266;28;20028;-70
2023/11/29 03:33:46;;;;;;;37.45;16.42;;;;;;;4.27;100.00;98050.69;5091263;28;20024;-70
2023/11/29 03:36:11;;;;;;;25.50;15.95;;;;;;;4.15;100.00;98051.34;5102152;28;20027;-70
2023/11/29 03:38:37;;;;;;;32.17;18.15;;;;;;;4.14;100.00;98046.94;5073071;28;20028;-70
2023/11/29 03:41:02;;;;;;;24.42;15.30;;;;;;;4.04;100.00;98041.75;5090707;28;20051;-70
2023/11/29 03:43:28;;;;;;;27.40;17.15;;;;;;;3.69;100.00;98050.84;5091172;28;20099;-70
2023/11/29 03:45:53;;;;;;;40.50;23.80;;;;;;;3.57;100.00;98054.28;5100859;28;20077;-70
2023/11/29 03:48:19;;;;;;;54.67;26.55;;;;;;;3.53;100.00;98055.25;5076349;28;20035;-70
2023/11/29 03:50:45;;;;;;;39.83;24.65;;;;;;;3.56;100.00;98046.28;5104276;28;20110;-70
2023/11/29 03:53:11;;;;;;;38.92;23.48;;;;;;;3.73;100.00;98051.81;5091073;28;20385;-70
2023/11/29 03:55:36;;;;;;;38.15;22.08;;;;;;;3.67;100.00;98066.97;5100615;28;20097;-70
2023/11/29 03:58:02;;;;;;;34.65;21.85;;;;;;;3.59;100.00;98073.28;5090861;28;20056;-70
2023/11/29 04:00:28;;;;;;;34.10;21.80;;;;;;;3.65;100.00;98080.31;5074957;28;20032;-70
2023/11/29 04:02:53;;;;;;;31.80;17.23;;;;;;;3.52;100.00;98079.28;5111166;28;20050;-70
2023/11/29 04:05:18;;;;;;;25.60;16.58;;;;;;;3.46;100.00;98084.16;5107258;28;20165;-70
2023/11/29 04:07:44;;;;;;;26.08;16.45;;;;;;;3.55;100.00;98086.94;5089545;28;20086;-70
2023/11/29 04:10:09;;;;;;;26.17;16.83;;;;;;;3.46;100.00;98081.41;5090562;28;20031;-70
2023/11/29 04:12:35;;;;;;;30.05;16.50;;;;;;;3.43;100.00;98084.81;5090720;28;20020;-70
2023/11/29 04:15:00;;;;;;;25.75;17.02;;;;;;;3.49;100.00;98083.50;5080557;28;20030;-70
2023/11/29 04:17:26;;;;;;;27.02;15.23;;;;;;;3.50;100.00;98079.63;5104304;28;20411;-70
2023/11/29 04:19:51;;;;;;;28.40;17.17;;;;;;;3.49;100.00;98091.00;5111110;28;20404;-70
2023/11/29 04:22:17;;;;;;;29.88;18.17;;;;;;;3.41;100.00;98083.50;5089435;28;20032;-70
2023/11/29 04:24:42;;;;;;;32.15;15.90;;;;;;;3.31;100.00;98093.72;5087428;28;20028;-70
2023/11/29 04:27:08;;;;;;;29.15;16.85;;;;;;;3.16;100.00;98089.47;5090391;28;20032;-70
2023/11/29 04:29:36;;;;;;;27.63;16.38;;;;;;;3.19;100.00;98096.28;5090702;28;20020;-70
2023/11/29 04:32:01;;;;;;;26.98;18.77;;;;;;;3.20;100.00;98104.25;5072217;28;20484;-70
2023/11/29 04:34:27;;;;;;;36.78;22.65;;;;;;;3.17;100.00;98098.53;5094093;28;20019;-70
2023/11/29 04:36:52;;;;;;;46.08;27.80;;;;;;;3.22;100.00;98107.50;5083858;28;20020;-70
2023/11/29 04:39:18;;;;;;;54.30;32.42;;;;;;;3.23;100.00;98120.19;5090594;28;20033;-70
2023/11/29 04:41:44;;;;;;;59.03;32.58;;;;;;;3.18;100.00;98123.09;5107751;28;20512;-70
2023/11/29 04:44:09;;;;;;;45.55;25.02;;;;;;;3.25;100.00;98136.47;5113320;28;20458;-70
2023/11/29 04:46:35;;;;;;;36.33;20.15;;;;;;;3.29;100.00;98136.63;5100523;28;20032;-70
2023/11/29 04:49:01;;;;;;;24.77;16.52;;;;;;;3.36;100.00;98134.22;5108019;28;20031;-70
2023/11/29 04:51:26;;;;;;;22.30;14.35;;;;;;;3.40;100.00;98142.69;5087183;28;20019;-70
2023/11/29 04:53:55;;;;;;;20.65;13.30;;;;;;;3.50;100.00;98150.69;5114311;28;20377;-70
2023/11/29 04:56:20;;;;;;;19.85;14.63;;;;;;;3.46;100.00;98147.75;5084272;28;20115;-70
2023/11/29 04:58:46;;;;;;;20.15;12.80;;;;;;;3.68;100.00;98151.56;5075673;28;20032;-70
2023/11/29 05:01:12;;;;;;;22.50;11.10;;;;;;;3.71;100.00;98139.84;5094848;28;20019;-70
2023/11/29 05:03:38;;;;;;;20.30;13.23;;;;;;;3.84;100.00;98151.09;5114066;28;20122;-70
2023/11/29 05:06:09;;;;;;;19.95;12.10;;;;;;;3.78;100.00;98156.78;5103931;28;20028;-70
2023/11/29 05:08:35;;;;;;;19.25;10.32;;;;;;;3.80;100.00;98142.63;5092284;28;20492;-70
2023/11/29 05:11:04;;;;;;;10.32;6.38;;;;;;;3.90;100.00;98152.59;5093329;28;20032;-70
2023/11/29 05:13:33;;;;;;;5.65;4.95;;;;;;;3.89;100.00;98150.97;5085431;28;20495;-70
2023/11/29 05:16:00;;;;;;;7.47;6.20;;;;;;;3.92;100.00;98156.66;5105228;28;20031;-70
2023/11/29 05:18:26;;;;;;;11.50;7.78;;;;;;;3.96;100.00;98151.28;5100812;28;20487;-70
2023/11/29 05:20:52;;;;;;;14.77;9.55;;;;;;;4.11;100.00;98161.06;5111104;28;20019;-70
2023/11/29 05:23:17;;;;;;;18.42;12.05;;;;;;;4.19;100.00;98157.50;5089664;28;20073;-70
2023/11/29 05:25:43;;;;;;;27.95;15.13;;;;;;;4.26;100.00;98170.03;5109603;28;20023;-70
2023/11/29 05:28:08;;;;;;;36.35;18.70;;;;;;;4.31;100.00;98169.88;5112111;28;20032;-70
2023/11/29 05:30:35;;;;;;;34.88;18.17;;;;;;;4.30;100.00;98182.09;5109214;28;22001;-70
2023/11/29 05:33:03;;;;;;;37.45;21.10;;;;;;;3.91;100.00;98181.88;5089499;28;20118;-70
2023/11/29 05:35:30;;;;;;;53.42;38.47;;;;;;;3.87;100.00;98178.13;5108487;28;20020;-70
2023/11/29 05:37:55;;;;;;;48.35;30.83;;;;;;;3.93;100.00;98179.59;5103969;28;20034;-70
2023/11/29 05:40:20;;;;;;;58.42;35.80;;;;;;;3.85;100.00;98183.16;5102500;28;20023;-70
2023/11/29 05:42:46;;;;;;;56.00;36.22;;;;;;;3.76;100.00;98180.38;5103846;28;20039;-70
2023/11/29 05:45:12;;;;;;;92.03;44.65;;;;;;;3.75;100.00;98189.81;5109069;28;20031;-70
2023/11/29 05:47:38;;;;;;;77.47;40.97;;;;;;;3.60;100.00;98182.75;5109256;28;20032;-70
2023/11/29 05:50:05;;;;;;;84.78;45.97;;;;;;;3.84;100.00;98181.53;5074267;28;20039;-70
2023/11/29 05:52:30;;;;;;;113.95;60.58;;;;;;;3.87;100.00;98181.69;5081992;28;20030;-69
2023/11/29 05:54:55;;;;;;;104.10;53.17;;;;;;;3.72;100.00;98191.25;5110317;28;20023;-69
2023/11/29 05:57:21;;;;;;;90.07;48.42;;;;;;;3.60;100.00;98200.19;5107847;28;20023;-68
2023/11/29 05:59:46;;;;;;;93.50;54.40;;;;;;;3.54;100.00;98206.19;5104995;28;20556;-74
2023/11/29 06:02:12;;;;;;;79.40;47.25;;;;;;;3.68;100.00;98197.75;5096960;28;20372;-71
2023/11/29 06:04:37;;;;;;;77.32;48.40;;;;;;;3.88;100.00;98188.88;5107457;28;20035;-70
2023/11/29 06:07:03;;;;;;;52.25;35.03;;;;;;;3.94;100.00;98192.28;5095247;28;20024;-72
2023/11/29 06:09:30;;;;;;;63.20;46.08;;;;;;;4.01;100.00;98200.94;5091672;28;20511;-72
2023/11/29 06:11:59;;;;;;;62.10;35.92;;;;;;;4.13;100.00;98205.03;5093249;28;20598;-71
2023/11/29 06:14:27;;;;;;;44.33;24.85;;;;;;;3.98;100.00;98209.06;5094696;28;20027;-75
2023/11/29 06:16:53;;;;;;;41.83;23.23;;;;;;;3.84;100.00;98221.09;5103341;28;20031;-75
2023/11/29 06:19:20;;;;;;;34.88;20.88;;;;;;;3.93;100.00;98230.22;5094407;28;20022;-75
2023/11/29 06:21:46;;;;;;;38.30;23.38;;;;;;;3.89;100.00;98220.13;5097674;28;20053;-74
2023/11/29 06:24:12;;;;;;;98.63;47.33;;;;;;;3.73;100.00;98230.81;5112503;28;20027;-71
2023/11/29 06:26:38;;;;;;;182.57;85.90;;;;;;;3.76;100.00;98228.22;5090176;28;20028;-71
2023/11/29 06:29:04;;;;;;;173.38;85.50;;;;;;;3.84;100.00;98225.78;5073645;28;20120;-71
2023/11/29 06:31:31;;;;;;;124.20;63.50;;;;;;;3.95;100.00;98242.94;5089487;28;20047;-71
2023/11/29 06:33:56;;;;;;;85.63;45.40;;;;;;;4.06;100.00;98245.06;5105151;28;20138;-70
2023/11/29 06:36:22;;;;;;;75.80;44.30;;;;;;;4.31;100.00;98248.19;5096159;28;20106;-71
2023/11/29 06:38:47;;;;;;;79.53;42.53;;;;;;;4.32;100.00;98238.75;5090266;28;20032;-72
2023/11/29 06:41:13;;;;;;;70.80;42.63;;;;;;;4.41;100.00;98237.97;5095660;28;20046;-73
2023/11/29 06:43:39;;;;;;;70.32;45.38;;;;;;;4.37;100.00;98250.84;5097294;28;20780;-71
2023/11/29 06:46:05;;;;;;;57.53;37.65;;;;;;;4.42;100.00;98256.19;5098536;28;20126;-70
2023/11/29 06:48:31;;;;;;;40.85;25.30;;;;;;;4.24;100.00;98249.81;5104906;27;20080;-73
2023/11/29 06:51:00;;;;;;;30.27;19.67;;;;;;;4.16;100.00;98254.22;5106190;28;20070;-73
2023/11/29 06:53:28;;;;;;;27.98;18.48;;;;;;;4.15;100.00;98258.91;5108632;28;20037;-71
2023/11/29 06:55:55;;;;;;;56.38;23.80;;;;;;;4.12;100.00;98265.09;5087658;28;20146;-71
2023/11/29 06:58:20;;;;;;;117.60;33.97;;;;;;;4.13;100.00;98261.19;5100464;28;20507;-71
2023/11/29 07:00:46;;;;;;;89.90;40.55;;;;;;;4.25;100.00;98268.88;5086101;28;20019;-72
2023/11/29 07:03:13;;;;;;;52.60;36.08;;;;;;;4.31;100.00;98273.13;5082566;28;20024;-74
2023/11/29 07:05:39;;;;;;;66.97;41.80;;;;;;;4.20;100.00;98274.56;5088640;28;20032;-74
2023/11/29 07:08:06;;;;;;;61.00;40.63;;;;;;;4.26;100.00;98283.53;5099060;28;20389;-73
2023/11/29 07:10:33;;;;;;;53.55;34.33;;;;;;;4.34;100.00;98282.75;5105401;28;20027;-72
2023/11/29 07:12:59;;;;;;;42.35;27.73;;;;;;;4.41;100.00;98285.03;5088338;28;20023;-74
2023/11/29 07:15:25;;;;;;;40.70;24.90;;;;;;;4.50;100.00;98291.41;5089574;28;20019;-74
2023/11/29 07:17:51;;;;;;;28.20;17.08;;;;;;;4.63;100.00;98289.63;5101013;28;20103;-72
2023/11/29 07:20:17;;;;;;;19.35;11.52;;;;;;;4.66;100.00;98300.06;5104457;28;20024;-72
2023/11/29 07:22:43;;;;;;;15.63;9.63;;;;;;;4.88;100.00;98301.88;5103680;28;20031;-71
2023/11/29 07:25:08;;;;;;;10.18;7.05;;;;;;;5.02;100.00;98300.88;5096330;28;20077;-73
2023/11/29 07:27:34;;;;;;;11.55;7.03;;;;;;;5.01;100.00;98288.16;5097901;28;20020;-73
2023/11/29 07:30:00;;;;;;;15.52;8.63;;;;;;;5.11;100.00;98287.84;5094398;28;20019;-73
2023/11/29 07:32:25;;;;;;;15.35;7.47;;;;;;;5.29;100.00;98296.94;5095159;28;20026;-73
2023/11/29 07:34:51;;;;;;;21.13;7.70;;;;;;;5.44;100.00;98303.94;5102116;28;20448;-73
2023/11/29 07:37:20;;;;;;;11.80;7.03;;;;;;;5.53;100.00;98305.88;5074365;28;20080;-73
2023/11/29 07:39:47;;;;;;;11.20;7.13;;;;;;;5.62;100.00;98312.22;5098965;28;20032;-73
2023/11/29 07:42:13;;;;;;;13.27;8.10;;;;;;;5.73;100.00;98315.44;5098505;28;20491;-73
2023/11/29 07:44:38;;;;;;;11.00;6.18;;;;;;;5.73;100.00;98315.44;5101070;28;20032;-73
2023/11/29 07:47:07;;;;;;;16.42;8.43;;;;;;;5.78;100.00;98328.31;5107562;28;20510;-73
2023/11/29 07:49:33;;;;;;;22.50;13.02;;;;;;;5.79;100.00;98324.41;5089673;28;20457;-73
2023/11/29 07:51:59;;;;;;;14.27;9.07;;;;;;;5.85;100.00;98326.69;5103475;28;20019;-73
2023/11/29 07:54:24;;;;;;;8.25;6.10;;;;;;;5.84;100.00;98329.78;5098175;28;20518;-72
2023/11/29 07:56:50;;;;;;;8.77;5.93;;;;;;;5.88;100.00;98325.19;5076869;28;20015;-73
2023/11/29 07:59:15;;;;;;;14.43;8.43;;;;;;;5.89;100.00;98315.72;5084454;28;20643;-73
2023/11/29 08:01:41;;;;;;;22.45;10.98;;;;;;;5.95;100.00;98322.72;5087917;28;20016;-72
2023/11/29 08:04:07;;;;;;;21.05;9.02;;;;;;;5.91;100.00;98313.41;5081726;28;20016;-73
2023/11/29 08:06:33;;;;;;;13.20;7.22;;;;;;;5.99;100.00;98320.91;5084745;28;20240;-73
2023/11/29 08:09:00;;;;;;;16.45;9.27;;;;;;;6.07;100.00;98338.72;5103272;28;20038;-73
2023/11/29 08:11:26;;;;;;;14.73;6.93;;;;;;;6.10;100.00;98338.06;5103861;28;20028;-73
2023/11/29 08:13:51;;;;;;;8.55;5.82;;;;;;;6.10;100.00;98340.00;5098988;28;20143;-73
2023/11/29 08:16:17;;;;;;;9.55;5.85;;;;;;;6.16;100.00;98352.56;5100121;28;20376;-73
2023/11/29 08:18:42;;;;;;;17.70;9.10;;;;;;;6.20;100.00;98353.53;5099022;28;20036;-73
2023/11/29 08:21:08;;;;;;;17.48;9.90;;;;;;;6.15;100.00;98348.97;5101509;28;20392;-73
2023/11/29 08:23:34;;;;;;;13.93;10.05;;;;;;;6.12;100.00;98354.38;5104498;28;20412;-72
2023/11/29 08:25:59;;;;;;;14.00;9.23;;;;;;;6.18;100.00;98334.41;5106939;28;20467;-75
2023/11/29 08:28:25;;;;;;;15.38;9.90;;;;;;;6.22;100.00;98342.09;5104320;28;20476;-73
2023/11/29 08:30:52;;;;;;;13.77;8.40;;;;;;;6.22;100.00;98344.88;5087488;28;20138;-73
2023/11/29 08:33:17;;;;;;;11.27;7.25;;;;;;;6.22;100.00;98340.13;5098408;28;20025;-72
2023/11/29 08:35:43;;;;;;;9.88;5.78;;;;;;;6.32;100.00;98350.84;5101858;28;20035;-73
2023/11/29 08:38:09;;;;;;;11.40;6.13;;;;;;;6.33;100.00;98346.09;5103469;28;20036;-72
2023/11/29 08:40:35;;;;;;;7.22;5.25;;;;;;;6.36;100.00;98342.69;5106645;28;20037;-72
2023/11/29 08:43:05;;;;;;;11.73;7.10;;;;;;;6.42;100.00;98346.88;5103823;28;20092;-72
2023/11/29 08:45:31;;;;;;;;;;;;;;;6.42;100.00;98351.63;5107818;28;20500;-73
2023/11/29 08:47:56;;;;;;;11.48;6.50;;;;;;;6.48;100.00;98347.50;5102025;28;20053;-73
2023/11/29 08:50:22;;;;;;;8.38;5.63;;;;;;;6.48;100.00;98341.94;5088911;28;20039;-73
2023/11/29 08:52:50;;;;;;;11.63;6.25;;;;;;;6.54;100.00;98362.84;5104880;28;20055;-73
2023/11/29 08:55:15;;;;;;;11.52;7.47;;;;;;;6.63;100.00;98348.91;5101733;28;20393;-73
2023/11/29 08:57:41;;;;;;;9.48;6.07;;;;;;;6.70;100.00;98342.81;5098700;28;20110;-72
2023/11/29 09:00:08;;;;;;;9.32;5.70;;;;;;;6.77;100.00;98356.16;5102851;28;20024;-72
2023/11/29 09:02:35;;;;;;;16.10;9.95;;;;;;;6.80;100.00;98345.19;5108728;28;20463;-73
2023/11/29 09:05:03;;;;;;;13.25;8.38;;;;;;;6.88;100.00;98349.06;5097163;28;20028;-73
2023/11/29 09:07:29;;;;;;;12.25;7.30;;;;;;;7.15;100.00;98335.78;5099307;28;20163;-75
2023/11/29 09:09:56;;;;;;;16.98;9.63;;;;;;;7.29;100.00;98322.38;5090034;28;20514;-73
2023/11/29 09:12:23;;;;;;;20.25;9.75;;;;;;;7.49;100.00;98327.47;5106331;28;20032;-73
2023/11/29 09:14:49;;;;;;;11.30;6.63;;;;;;;7.65;100.00;98324.84;5085726;28;20031;-74
2023/11/29 09:17:16;;;;;;;12.07;6.13;;;;;;;7.73;100.00;98327.56;5100578;28;20012;-74
2023/11/29 09:19:43;;;;;;;12.95;6.40;;;;;;;7.71;100.00;98313.13;5095014;28;20035;-74
2023/11/29 09:22:09;;;;;;;36.72;15.25;;;;;;;7.79;100.00;98327.31;5102639;28;20110;-74
2023/11/29 09:24:35;;;;;;;18.58;8.82;;;;;;;7.91;100.00;98330.13;5091571;28;20019;-73
2023/11/29 09:27:01;;;;;;;11.98;7.43;;;;;;;7.94;100.00;98321.06;5108681;28;20043;-73
2023/11/29 09:29:28;;;;;;;9.80;6.43;;;;;;;8.19;100.00;98331.44;5108054;28;20031;-73
2023/11/29 09:31:53;;;;;;;5.95;4.78;;;;;;;8.44;100.00;98332.25;5114112;28;20019;-76
2023/11/29 09:34:20;;;;;;;5.53;4.68;;;;;;;8.65;100.00;98325.78;5095340;28;20022;-75
2023/11/29 09:36:46;;;;;;;7.47;4.75;;;;;;;8.83;98.42;98327.16;5104702;28;20510;-74
2023/11/29 09:39:17;;;;;;;5.55;4.32;;;;;;;9.05;98.62;98333.38;5091520;28;20043;-74
2023/11/29 09:41:45;;;;;;;11.23;7.05;;;;;;;9.25;97.71;98322.38;5105393;28;20047;-76
2023/11/29 09:44:12;;;;;;;8.20;5.15;;;;;;;9.26;96.29;98316.47;5107849;28;20015;-77
2023/11/29 09:46:37;;;;;;;9.60;6.97;;;;;;;9.56;98.00;98329.25;5097406;28;20028;-77
2023/11/29 09:49:03;;;;;;;8.73;6.80;;;;;;;9.32;95.63;98321.78;5074821;28;20020;-77
2023/11/29 09:51:29;;;;;;;9.00;6.30;;;;;;;9.06;96.07;98320.25;5107720;28;20407;-77
2023/11/29 09:53:55;;;;;;;10.80;7.47;;;;;;;9.05;98.17;98322.22;5113324;28;20021;-76
2023/11/29 09:56:20;;;;;;;26.52;11.88;;;;;;;9.01;96.95;98293.41;5111439;28;20030;-76
2023/11/29 09:58:45;;;;;;;25.98;11.82;;;;;;;9.01;97.83;98315.72;5113219;28;20080;-76
2023/11/29 10:01:15;;;;;;;12.65;8.13;;;;;;;9.06;97.61;98306.28;5113145;28;20019;-76
2023/11/29 10:03:41;;;;;;;13.25;6.78;;;;;;;9.12;97.68;98305.69;5113119;28;20016;-76
2023/11/29 10:06:08;;;;;;;12.80;7.07;;;;;;;9.11;95.38;98297.66;5093839;28;20027;-76
2023/11/29 10:08:34;;;;;;;21.83;8.60;;;;;;;9.33;93.65;98298.28;5092731;28;20093;-77
2023/11/29 10:11:00;;;;;;;15.13;7.10;;;;;;;9.60;91.95;98301.44;5094235;28;20024;-77
2023/11/29 10:13:26;;;;;;;6.35;5.07;;;;;;;10.01;89.63;98292.91;5112388;28;20127;-77
2023/11/29 10:15:54;;;;;;;11.35;6.47;;;;;;;10.10;87.86;98276.78;5110277;28;20561;-77
2023/11/29 10:18:20;;;;;;;23.60;9.57;;;;;;;10.13;85.58;98273.25;5112087;28;20039;-77
2023/11/29 10:20:46;;;;;;;17.50;6.50;;;;;;;10.43;84.64;98278.41;5112260;28;20031;-77
2023/11/29 10:23:13;;;;;;;14.25;7.57;;;;;;;10.52;84.96;98278.19;5110844;28;20042;-77
2023/11/29 10:25:39;;;;;;;12.10;6.57;;;;;;;10.73;85.01;98271.47;5094050;28;20173;-77
2023/11/29 10:28:04;;;;;;;5.93;3.50;;;;;;;11.00;82.63;98257.66;5112570;28;20032;-77
2023/11/29 10:30:30;;;;;;;5.35;3.78;;;;;;;11.22;81.46;98259.72;5112542;28;20024;-77
2023/11/29 10:32:56;;;;;;;20.55;7.53;;;;;;;11.50;81.78;98271.88;5111169;28;20559;-77
2023/11/29 10:35:24;;;;;;;5.38;3.15;;;;;;;11.59;79.78;98266.03;5094301;28;20419;-77
2023/11/29 10:38:15;;;;;;;7.32;4.78;;;;;;;11.60;77.70;98267.63;5112328;28;20050;-77
2023/11/29 10:40:42;;;;;;;4.65;3.67;;;;;;;11.80;78.02;98266.41;5099744;28;20092;-77
2023/11/29 10:43:12;;;;;;;16.75;8.90;;;;;;;11.75;78.45;98275.13;5111305;28;20058;-77
2023/11/29 10:45:41;;;;;;;3.70;2.50;;;;;;;11.52;78.69;98280.69;5094036;28;20565;-77
2023/11/29 10:48:21;;;;;;;3.15;2.25;;;;;;;11.69;78.16;98270.19;5112236;28;20031;-77
2023/11/29 10:50:48;;;;;;;8.65;3.80;;;;;;;11.61;78.34;98274.84;5110946;28;20110;-77
2023/11/29 10:53:15;;;;;;;13.55;4.47;;;;;;;11.59;80.33;98264.03;5111073;28;20023;-77
2023/11/29 10:55:43;;;;;;;10.15;4.00;;;;;;;11.35;80.80;98256.78;5112182;28;20030;-77
2023/11/29 10:58:23;;;;;;;9.30;4.57;;;;;;;11.69;80.44;98270.19;5093888;28;20046;-77
2023/11/29 11:00:48;;;;;;;5.63;3.80;;;;;;;11.46;78.98;98266.19;5111138;28;20043;-77
2023/11/29 11:03:42;;;;;;;5.55;3.45;;;;;;;11.34;80.05;98269.97;5111975;28;20461;-77
2023/11/29 11:06:23;;;;;;;4.28;2.63;;;;;;;11.50;79.05;98274.66;5099555;28;20092;-77
2023/11/29 11:08:54;;;;;;;5.10;2.63;;;;;;;11.60;78.00;98273.25;5111897;28;20027;-77
2023/11/29 11:11:38;;;;;;;5.13;3.15;;;;;;;11.63;78.48;98267.72;5092834;28;20131;-77
2023/11/29 11:14:09;;;;;;;3.35;2.67;;;;;;;11.98;77.43;98262.31;5093601;28;20497;-77
2023/11/29 11:16:52;;;;;;;3.55;3.17;;;;;;;11.91;76.88;98255.38;5093673;28;20483;-77
2023/11/29 11:19:35;;;;;;;14.82;9.43;;;;;;;12.13;77.88;98264.19;5112337;28;20043;-77